Isabella — 9HSL7 — position and weather

sailwx.info

Track history (hours):
 
Tides and Currents Weather Stations Pressure Air Temp Water Temp Dewpoint Dewpoint Depression Visibility Wind Speed Wind Dir Waves Ship Positions

Isabella

Last reported at 2014-Aug-23 03:27 UTC. Time now 2014-Aug-23 19:18 UTC.
Position N 35°58' E 014°50'.

Length 244 m; draft 12.3 m.

Type: Tanker. MMSI: 215545000.

Date/timePositionNaut miles runAvg speedWind from/ knotsBaromVisibWave heightAir tempDewpointWater temp
2014-Aug-23 03:27N 35°58' E 014°50'0 0.0
2014-Aug-23 02:33N 35°58' E 014°50'0 0.0
2014-Aug-23 01:33N 35°58' E 014°50'0 0.0
2014-Aug-23 00:33N 35°58' E 014°50'0 0.0
2014-Aug-22 23:33N 35°58' E 014°50'0 0.0
2014-Aug-22 22:27N 35°58' E 014°50'0 0.0
2014-Aug-22 21:30N 35°58' E 014°50'0 0.0
2014-Aug-22 20:33N 35°58' E 014°50'0 0.0
2014-Aug-22 19:33N 35°58' E 014°50'0 0.0
2014-Aug-22 18:33N 35°58' E 014°50'0 0.0
2014-Aug-22 08:33N 35°58' E 014°50'0 0.0
2014-Aug-22 07:15N 35°58' E 014°50'0 0.2
2014-Aug-22 06:33N 35°58' E 014°50'6 6.4
2014-Aug-22 05:33N 35°59' E 014°42'10 9.4
2014-Aug-22 04:30N 36°04' E 014°32'9 9.4
2014-Aug-22 03:32N 36°07' E 014°21'11 9.9
2014-Aug-22 02:28N 36°12' E 014°09'10 9.7
2014-Aug-22 01:27N 36°16' E 013°58'9 9.7
2014-Aug-22 00:33N 36°20' E 013°49'11 9.6
2014-Aug-21 23:23N 36°25' E 013°36'1910.0
2014-Aug-21 21:30N 36°33' E 013°15'2010.4
2014-Aug-21 19:32N 36°42' E 012°52'1010.6
2014-Aug-21 18:33N 36°46' E 012°40'1010.5
2014-Aug-21 17:33N 36°51' E 012°28'1110.7
2014-Aug-21 16:33N 36°55' E 012°16'1110.9
2014-Aug-21 15:33N 37°00' E 012°04'1110.8
2014-Aug-21 14:33N 37°05' E 011°52'1110.7
2014-Aug-21 13:32N 37°10' E 011°40'1010.1
2014-Aug-21 12:33N 37°14' E 011°29'1010.4
2014-Aug-21 11:33N 37°19' E 011°17'1110.6
2014-Aug-21 10:29N 37°25' E 011°05'1010.9
2014-Aug-21 09:33N 37°30' E 010°54'1111.0
2014-Aug-21 08:32N 37°32' E 010°40'1413.8
2014-Aug-21 07:33N 37°33' E 010°23'1313.3
2014-Aug-21 06:33N 37°34' E 010°06'1313.2
2014-Aug-21 05:33N 37°36' E 009°50'1413.4
2014-Aug-21 04:32N 37°39' E 009°33'1413.5
2014-Aug-21 03:28N 37°41' E 009°15'1313.5
2014-Aug-21 02:32N 37°43' E 008°59'1413.1
2014-Aug-21 01:29N 37°42' E 008°42'28011.6
2014-Aug-20 01:20N 37°10' E 002°51'10011.0
2014-Aug-19 16:14N 36°51' E 000°48'13011.9
2014-Aug-19 05:21N 36°25' W 001°51'16712.8
2014-Aug-18 16:16N 35°60' W 005°15'  
2014-Aug-14 05:26N 50°24' W 000°37'1213.5
2014-Aug-14 04:33N 50°27' W 000°19'1312.7
2014-Aug-14 03:33N 50°30' E 000°01'1211.9
2014-Aug-14 02:34N 50°33' E 000°19'1110.7
2014-Aug-14 01:33N 50°36' E 000°35'10 9.7
2014-Aug-14 00:33N 50°42' E 000°48'9 9.4
2014-Aug-13 23:34N 50°48' E 000°59'1010.2
2014-Aug-13 22:34N 50°55' E 001°11'1312.7
2014-Aug-13 21:34N 51°03' E 001°26'1413.6
2014-Aug-13 20:33N 51°12' E 001°42'1211.7
2014-Aug-13 19:33N 51°21' E 001°53'1010.4
2014-Aug-13 18:33N 51°30' E 002°02'9 9.4
2014-Aug-13 17:33N 51°37' E 002°12'9 8.8
2014-Aug-13 16:33N 51°44' E 002°21'  
Track history (hours):
 
Tides and Currents Weather Stations Pressure Air Temp Water Temp Dewpoint Dewpoint Depression Visibility Wind Speed Wind Dir Waves Ship Positions

Isabella

Last reported at 2014-Aug-23 03:27 UTC. Time now 2014-Aug-23 19:18 UTC.
Position N 35°58' E 014°50'.

Length 244 m; draft 12.3 m.

Type: Tanker. MMSI: 215545000.

Date/timePositionNaut miles runAvg speedWind from/ knotsBaromVisibWave heightAir tempDewpointWater temp
2014-Aug-23 03:27N 35°58' E 014°50'0 0.0
2014-Aug-23 02:33N 35°58' E 014°50'0 0.0
2014-Aug-23 01:33N 35°58' E 014°50'0 0.0
2014-Aug-23 00:33N 35°58' E 014°50'0 0.0
2014-Aug-22 23:33N 35°58' E 014°50'0 0.0
2014-Aug-22 22:27N 35°58' E 014°50'0 0.0
2014-Aug-22 21:30N 35°58' E 014°50'0 0.0
2014-Aug-22 20:33N 35°58' E 014°50'0 0.0
2014-Aug-22 19:33N 35°58' E 014°50'0 0.0
2014-Aug-22 18:33N 35°58' E 014°50'0 0.0
2014-Aug-22 08:33N 35°58' E 014°50'0 0.0
2014-Aug-22 07:15N 35°58' E 014°50'0 0.2
2014-Aug-22 06:33N 35°58' E 014°50'6 6.4
2014-Aug-22 05:33N 35°59' E 014°42'10 9.4
2014-Aug-22 04:30N 36°04' E 014°32'9 9.4
2014-Aug-22 03:32N 36°07' E 014°21'11 9.9
2014-Aug-22 02:28N 36°12' E 014°09'10 9.7
2014-Aug-22 01:27N 36°16' E 013°58'9 9.7
2014-Aug-22 00:33N 36°20' E 013°49'11 9.6
2014-Aug-21 23:23N 36°25' E 013°36'1910.0
2014-Aug-21 21:30N 36°33' E 013°15'2010.4
2014-Aug-21 19:32N 36°42' E 012°52'1010.6
2014-Aug-21 18:33N 36°46' E 012°40'1010.5
2014-Aug-21 17:33N 36°51' E 012°28'1110.7
2014-Aug-21 16:33N 36°55' E 012°16'1110.9
2014-Aug-21 15:33N 37°00' E 012°04'1110.8
2014-Aug-21 14:33N 37°05' E 011°52'1110.7
2014-Aug-21 13:32N 37°10' E 011°40'1010.1
2014-Aug-21 12:33N 37°14' E 011°29'1010.4
2014-Aug-21 11:33N 37°19' E 011°17'1110.6
2014-Aug-21 10:29N 37°25' E 011°05'1010.9
2014-Aug-21 09:33N 37°30' E 010°54'1111.0
2014-Aug-21 08:32N 37°32' E 010°40'1413.8
2014-Aug-21 07:33N 37°33' E 010°23'1313.3
2014-Aug-21 06:33N 37°34' E 010°06'1313.2
2014-Aug-21 05:33N 37°36' E 009°50'1413.4
2014-Aug-21 04:32N 37°39' E 009°33'1413.5
2014-Aug-21 03:28N 37°41' E 009°15'1313.5
2014-Aug-21 02:32N 37°43' E 008°59'1413.1
2014-Aug-21 01:29N 37°42' E 008°42'28011.6
2014-Aug-20 01:20N 37°10' E 002°51'10011.0
2014-Aug-19 16:14N 36°51' E 000°48'13011.9
2014-Aug-19 05:21N 36°25' W 001°51'16712.8
2014-Aug-18 16:16N 35°60' W 005°15'  
2014-Aug-14 05:26N 50°24' W 000°37'1213.5
2014-Aug-14 04:33N 50°27' W 000°19'1312.7
2014-Aug-14 03:33N 50°30' E 000°01'1211.9
2014-Aug-14 02:34N 50°33' E 000°19'1110.7
2014-Aug-14 01:33N 50°36' E 000°35'10 9.7
2014-Aug-14 00:33N 50°42' E 000°48'9 9.4
2014-Aug-13 23:34N 50°48' E 000°59'1010.2
2014-Aug-13 22:34N 50°55' E 001°11'1312.7
2014-Aug-13 21:34N 51°03' E 001°26'1413.6
2014-Aug-13 20:33N 51°12' E 001°42'1211.7
2014-Aug-13 19:33N 51°21' E 001°53'1010.4
2014-Aug-13 18:33N 51°30' E 002°02'9 9.4
2014-Aug-13 17:33N 51°37' E 002°12'9 8.8
2014-Aug-13 16:33N 51°44' E 002°21'  

Dump ship's entire track history